UAE30Y OMDB-CYYZ
Flight info
| Callsign | UAE30Y |
|---|---|
| Flight time | N/A |
| Altitude | 34000 |
| Route | ANVIX R401 GIDIS G783 VAVIM DCT ESROM M318 GOLGU M550 RIBOT DCT MIGMA DCT SITUK M321 KSA T503 SERPU/N0506F320 T503 BONIS/N0495F340 T503 OVANO L768 FIRAS R655 KTN/N0487F260 R655 LEBOR UR655 BALMA DCT VESAR UB545 MUT/N0485F360 UL619 MAKOL DCT KARIL DCT KEKED DCT KELEL DCT SUDOL DCT AGALU DCT ROVEK DCT BINKA DCT KOGIM DCT SONAL DCT RADIS DCT ZOL DCT GUNPA/M085F360 DCT 62N010W 62N020W/M085F380 61N030W 59N040W 57N050W/M085F400 DCT DORYY/N0494F400 DCT MOFAT DCT ROSVO IMEBA9 |
| Aircraft | A359/H-SDE2E3GHIJ3J4J5LM1ORWXY/LB1D1 |
Departure
| Time | 2026-04-23 10:42 |
|---|---|
| Airport | Dubai International Airport (OMDB) |
Arrival
| Time | N/A |
|---|---|
| Airport | Toronto Pearson International Airport (CYYZ) |
| Time | Latitude | Longitude | Altitude | Speed | Heading |
|---|---|---|---|---|---|
| 2026-04-23 09:56 | 25.24193 | 55.37251 | 30 ft | 0 kts | 31° |
| 2026-04-23 10:29 | 25.24179 | 55.37242 | 28 ft | 4 kts | 31° |
| 2026-04-23 10:29 | 25.24156 | 55.37226 | 27 ft | 4 kts | 31° |
| 2026-04-23 10:30 | 25.24138 | 55.37213 | 24 ft | 4 kts | 44° |
| 2026-04-23 10:30 | 25.24125 | 55.37190 | 24 ft | 4 kts | 87° |
| 2026-04-23 10:30 | 25.24130 | 55.37163 | 24 ft | 4 kts | 121° |
| 2026-04-23 10:30 | 25.24144 | 55.37139 | 24 ft | 4 kts | 122° |
| 2026-04-23 10:31 | 25.24151 | 55.37126 | 25 ft | 3 kts | 122° |
| 2026-04-23 10:34 | 25.24142 | 55.37142 | 24 ft | 7 kts | 121° |
| 2026-04-23 10:34 | 25.24107 | 55.37204 | 28 ft | 10 kts | 122° |
| 2026-04-23 10:35 | 25.24069 | 55.37273 | 27 ft | 11 kts | 122° |
| 2026-04-23 10:35 | 25.24029 | 55.37344 | 27 ft | 11 kts | 122° |
| 2026-04-23 10:35 | 25.23988 | 55.37417 | 27 ft | 11 kts | 120° |
| 2026-04-23 10:35 | 25.23967 | 55.37500 | 27 ft | 11 kts | 89° |
| 2026-04-23 10:36 | 25.23993 | 55.37581 | 27 ft | 11 kts | 52° |
| 2026-04-23 10:36 | 25.24053 | 55.37633 | 27 ft | 11 kts | 32° |
| 2026-04-23 10:36 | 25.24120 | 55.37678 | 27 ft | 11 kts | 31° |
| 2026-04-23 10:36 | 25.24186 | 55.37723 | 27 ft | 11 kts | 31° |
| 2026-04-23 10:37 | 25.24242 | 55.37760 | 27 ft | 9 kts | 31° |
| 2026-04-23 10:37 | 25.24295 | 55.37797 | 27 ft | 9 kts | 32° |
| 2026-04-23 10:37 | 25.24347 | 55.37834 | 28 ft | 9 kts | 33° |
| 2026-04-23 10:37 | 25.24401 | 55.37875 | 29 ft | 11 kts | 34° |
| 2026-04-23 10:38 | 25.24464 | 55.37921 | 31 ft | 10 kts | 34° |
| 2026-04-23 10:38 | 25.24521 | 55.37965 | 31 ft | 10 kts | 34° |
| 2026-04-23 10:38 | 25.24584 | 55.38013 | 29 ft | 9 kts | 34° |
| 2026-04-23 10:38 | 25.24620 | 55.38039 | 29 ft | 5 kts | 32° |
| 2026-04-23 10:39 | 25.24632 | 55.38047 | 29 ft | 0 kts | 32° |
| 2026-04-23 10:40 | 25.24641 | 55.38053 | 30 ft | 5 kts | 32° |
| 2026-04-23 10:40 | 25.24680 | 55.38080 | 31 ft | 8 kts | 31° |
| 2026-04-23 10:40 | 25.24733 | 55.38102 | 32 ft | 7 kts | 359° |
| 2026-04-23 10:41 | 25.24778 | 55.38070 | 33 ft | 9 kts | 312° |
| 2026-04-23 10:41 | 25.24851 | 55.37946 | 31 ft | 42 kts | 301° |
| 2026-04-23 10:41 | 25.25109 | 55.37482 | 33 ft | 99 kts | 302° |
| 2026-04-23 10:41 | 25.25561 | 55.36668 | 31 ft | 147 kts | 301° |
| 2026-04-23 10:42 | 25.26143 | 55.35599 | 279 ft | 168 kts | 302° |
| 2026-04-23 10:42 | 25.26723 | 55.34502 | 782 ft | 167 kts | 305° |
| 2026-04-23 10:42 | 25.27336 | 55.33369 | 1216 ft | 175 kts | 304° |
| 2026-04-23 10:42 | 25.27997 | 55.32199 | 1595 ft | 185 kts | 304° |
| 2026-04-23 10:43 | 25.28706 | 55.30942 | 1735 ft | 199 kts | 303° |
| 2026-04-23 10:43 | 25.29189 | 55.29450 | 1905 ft | 215 kts | 276° |
| 2026-04-23 10:43 | 25.28902 | 55.27849 | 2350 ft | 216 kts | 248° |
| 2026-04-23 10:43 | 25.28279 | 55.26342 | 2834 ft | 214 kts | 244° |
| 2026-04-23 10:44 | 25.27612 | 55.24826 | 3086 ft | 226 kts | 245° |
| 2026-04-23 10:44 | 25.26922 | 55.23240 | 3335 ft | 235 kts | 245° |
| 2026-04-23 10:44 | 25.26221 | 55.21611 | 3790 ft | 235 kts | 245° |
| 2026-04-23 10:44 | 25.25516 | 55.19965 | 4210 ft | 238 kts | 244° |
| 2026-04-23 10:45 | 25.24744 | 55.18344 | 4657 ft | 238 kts | 234° |
| 2026-04-23 10:45 | 25.23534 | 55.17124 | 5099 ft | 238 kts | 207° |
| 2026-04-23 10:45 | 25.21934 | 55.16708 | 5443 ft | 244 kts | 181° |
| 2026-04-23 10:45 | 25.20214 | 55.16843 | 5824 ft | 250 kts | 171° |
| 2026-04-23 10:46 | 25.18606 | 55.17605 | 6243 ft | 257 kts | 145° |
| 2026-04-23 10:46 | 25.17418 | 55.19147 | 6471 ft | 273 kts | 123° |
| 2026-04-23 10:46 | 25.16504 | 55.21035 | 6733 ft | 284 kts | 119° |
| 2026-04-23 10:46 | 25.15615 | 55.22979 | 7154 ft | 287 kts | 119° |
| 2026-04-23 10:47 | 25.14691 | 55.24969 | 7601 ft | 290 kts | 120° |
| 2026-04-23 10:47 | 25.13760 | 55.26943 | 8076 ft | 293 kts | 120° |
| 2026-04-23 10:47 | 25.12808 | 55.28951 | 8588 ft | 295 kts | 120° |
| 2026-04-23 10:47 | 25.11848 | 55.30957 | 9100 ft | 298 kts | 120° |
| 2026-04-23 10:48 | 25.10865 | 55.33001 | 9628 ft | 301 kts | 120° |
| 2026-04-23 10:48 | 25.09927 | 55.35066 | 10105 ft | 304 kts | 117° |
| 2026-04-23 10:48 | 25.09057 | 55.37217 | 10613 ft | 306 kts | 116° |
| 2026-04-23 10:48 | 25.08193 | 55.39371 | 11126 ft | 307 kts | 117° |
| 2026-04-23 10:49 | 25.07320 | 55.41527 | 11669 ft | 308 kts | 117° |
| 2026-04-23 10:49 | 25.06459 | 55.43702 | 12061 ft | 317 kts | 116° |
| 2026-04-23 10:49 | 25.05588 | 55.45987 | 12284 ft | 329 kts | 116° |
| 2026-04-23 10:49 | 25.04686 | 55.48358 | 12506 ft | 342 kts | 116° |
| 2026-04-23 10:50 | 25.03742 | 55.50824 | 12721 ft | 353 kts | 116° |
| 2026-04-23 10:50 | 25.02768 | 55.53359 | 12961 ft | 364 kts | 116° |
| 2026-04-23 10:50 | 25.01691 | 55.55896 | 13156 ft | 373 kts | 121° |
| 2026-04-23 10:50 | 25.00378 | 55.58421 | 13383 ft | 382 kts | 123° |
| 2026-04-23 10:51 | 24.99011 | 55.60944 | 13564 ft | 391 kts | 124° |
| 2026-04-23 10:51 | 24.97589 | 55.63560 | 13731 ft | 400 kts | 123° |
| 2026-04-23 10:51 | 24.96144 | 55.66223 | 13937 ft | 406 kts | 123° |
| 2026-04-23 10:51 | 24.94694 | 55.68890 | 14235 ft | 410 kts | 124° |
| 2026-04-23 10:52 | 24.93098 | 55.71499 | 14567 ft | 410 kts | 128° |
| 2026-04-23 10:52 | 24.91429 | 55.74034 | 14910 ft | 412 kts | 129° |
| 2026-04-23 10:52 | 24.89718 | 55.76606 | 15250 ft | 415 kts | 129° |
| 2026-04-23 10:52 | 24.88025 | 55.79153 | 15607 ft | 417 kts | 129° |
| 2026-04-23 10:53 | 24.86292 | 55.81761 | 15913 ft | 420 kts | 129° |
| 2026-04-23 10:53 | 24.84558 | 55.84372 | 16250 ft | 422 kts | 129° |
| 2026-04-23 10:53 | 24.82830 | 55.86968 | 16576 ft | 425 kts | 129° |
| 2026-04-23 10:53 | 24.81017 | 55.89580 | 16925 ft | 425 kts | 133° |
| 2026-04-23 10:54 | 24.78908 | 55.91761 | 17219 ft | 421 kts | 148° |
| 2026-04-23 10:54 | 24.76286 | 55.93193 | 17458 ft | 419 kts | 166° |
| 2026-04-23 10:54 | 24.73438 | 55.93724 | 17803 ft | 416 kts | 178° |
| 2026-04-23 10:54 | 24.70528 | 55.93844 | 18092 ft | 418 kts | 182° |
| 2026-04-23 10:55 | 24.67621 | 55.93784 | 18367 ft | 421 kts | 184° |
| 2026-04-23 10:55 | 24.64668 | 55.93629 | 18686 ft | 421 kts | 187° |
| 2026-04-23 10:55 | 24.61809 | 55.93078 | 18972 ft | 421 kts | 197° |
| 2026-04-23 10:55 | 24.59073 | 55.91898 | 19217 ft | 421 kts | 210° |
| 2026-04-23 10:56 | 24.56645 | 55.90140 | 19530 ft | 421 kts | 218° |
| 2026-04-23 10:56 | 24.54343 | 55.88130 | 19854 ft | 422 kts | 221° |
| 2026-04-23 10:56 | 24.52131 | 55.86022 | 20118 ft | 424 kts | 222° |
| 2026-04-23 10:56 | 24.49936 | 55.83852 | 20422 ft | 426 kts | 223° |
| 2026-04-23 10:57 | 24.48472 | 55.82394 | 20629 ft | 427 kts | 223° |
| 2026-04-23 10:57 | 24.45520 | 55.79470 | 21038 ft | 430 kts | 223° |
| 2026-04-23 10:57 | 24.44035 | 55.78015 | 21217 ft | 431 kts | 223° |
| 2026-04-23 10:57 | 24.41031 | 55.75098 | 21621 ft | 434 kts | 222° |
| 2026-04-23 10:58 | 24.39514 | 55.73636 | 21825 ft | 435 kts | 222° |
| 2026-04-23 10:58 | 24.37247 | 55.71458 | 22138 ft | 436 kts | 222° |
| 2026-04-23 10:58 | 24.34948 | 55.69259 | 22453 ft | 438 kts | 222° |
| 2026-04-23 10:58 | 24.32633 | 55.67044 | 22762 ft | 440 kts | 222° |
| 2026-04-23 10:59 | 24.30342 | 55.64844 | 23033 ft | 441 kts | 223° |
| 2026-04-23 10:59 | 24.28182 | 55.62473 | 23310 ft | 442 kts | 230° |
| 2026-04-23 10:59 | 24.26311 | 55.59773 | 23504 ft | 444 kts | 238° |
| 2026-04-23 10:59 | 24.24867 | 55.56807 | 23716 ft | 444 kts | 247° |
| 2026-04-23 11:00 | 24.23700 | 55.53642 | 23966 ft | 445 kts | 250° |
| 2026-04-23 11:00 | 24.22659 | 55.50469 | 24241 ft | 446 kts | 251° |
| 2026-04-23 11:00 | 24.21338 | 55.46156 | 24606 ft | 448 kts | 252° |
| 2026-04-23 11:00 | 24.20688 | 55.43999 | 24798 ft | 449 kts | 252° |
| 2026-04-23 11:01 | 24.19702 | 55.40733 | 25085 ft | 450 kts | 252° |
| 2026-04-23 11:01 | 24.18716 | 55.37505 | 25391 ft | 452 kts | 252° |
| 2026-04-23 11:01 | 24.17709 | 55.34246 | 25702 ft | 453 kts | 252° |
| 2026-04-23 11:01 | 24.16690 | 55.30975 | 25991 ft | 455 kts | 252° |
| 2026-04-23 11:02 | 24.15657 | 55.27680 | 26297 ft | 456 kts | 252° |
| 2026-04-23 11:02 | 24.14620 | 55.24384 | 26620 ft | 457 kts | 252° |
| 2026-04-23 11:02 | 24.13578 | 55.21077 | 26940 ft | 459 kts | 253° |
| 2026-04-23 11:02 | 24.12539 | 55.17780 | 27225 ft | 460 kts | 253° |
| 2026-04-23 11:03 | 24.11524 | 55.14564 | 27500 ft | 462 kts | 253° |
| 2026-04-23 11:03 | 24.10471 | 55.11225 | 27781 ft | 463 kts | 253° |
| 2026-04-23 11:03 | 24.09427 | 55.07916 | 28048 ft | 465 kts | 253° |
| 2026-04-23 11:03 | 24.08360 | 55.04538 | 28317 ft | 466 kts | 253° |
| 2026-04-23 11:04 | 24.07310 | 55.01214 | 28579 ft | 468 kts | 253° |
| 2026-04-23 11:04 | 24.06244 | 54.97845 | 28935 ft | 467 kts | 253° |
| 2026-04-23 11:04 | 24.05183 | 54.94497 | 29393 ft | 463 kts | 253° |
| 2026-04-23 11:04 | 24.04136 | 54.91197 | 29783 ft | 462 kts | 253° |
| 2026-04-23 11:05 | 24.03078 | 54.87864 | 30096 ft | 461 kts | 253° |
| 2026-04-23 11:05 | 24.02035 | 54.84580 | 30394 ft | 459 kts | 253° |
| 2026-04-23 11:05 | 24.00981 | 54.81264 | 30700 ft | 458 kts | 254° |
| 2026-04-23 11:05 | 23.99941 | 54.77994 | 30987 ft | 457 kts | 254° |
| 2026-04-23 11:06 | 23.97863 | 54.71471 | 31570 ft | 454 kts | 254° |
| 2026-04-23 11:06 | 23.96823 | 54.68207 | 31850 ft | 453 kts | 254° |
| 2026-04-23 11:06 | 23.95782 | 54.64945 | 32121 ft | 452 kts | 254° |
| 2026-04-23 11:07 | 23.94756 | 54.61731 | 32387 ft | 451 kts | 254° |
| 2026-04-23 11:07 | 23.93717 | 54.58480 | 32651 ft | 450 kts | 254° |
| 2026-04-23 11:07 | 23.92696 | 54.55288 | 32904 ft | 449 kts | 254° |
| 2026-04-23 11:07 | 23.91657 | 54.52043 | 33153 ft | 448 kts | 254° |
| 2026-04-23 11:08 | 23.90637 | 54.48861 | 33390 ft | 447 kts | 254° |
| 2026-04-23 11:08 | 23.89606 | 54.45644 | 33619 ft | 445 kts | 254° |
| 2026-04-23 11:08 | 23.88588 | 54.42471 | 33784 ft | 446 kts | 254° |
| 2026-04-23 11:09 | 23.86517 | 54.36016 | 33800 ft | 452 kts | 254° |
| 2026-04-23 11:09 | 23.84437 | 54.29552 | 33793 ft | 451 kts | 254° |
| 2026-04-23 11:10 | 23.82352 | 54.23085 | 33795 ft | 451 kts | 254° |
| 2026-04-23 11:10 | 23.80269 | 54.16633 | 33796 ft | 450 kts | 254° |
| 2026-04-23 11:11 | 23.78187 | 54.10196 | 33807 ft | 450 kts | 254° |
| 2026-04-23 11:11 | 23.76096 | 54.03737 | 33801 ft | 450 kts | 254° |
| 2026-04-23 11:12 | 23.74015 | 53.97319 | 33797 ft | 450 kts | 253° |
| 2026-04-23 11:12 | 23.71926 | 53.90890 | 33803 ft | 450 kts | 253° |
| 2026-04-23 11:13 | 23.69838 | 53.84476 | 33805 ft | 450 kts | 253° |
| 2026-04-23 11:13 | 23.67743 | 53.78046 | 33804 ft | 450 kts | 253° |
| 2026-04-23 11:14 | 23.65635 | 53.71589 | 33801 ft | 450 kts | 253° |
| 2026-04-23 11:14 | 23.63544 | 53.65192 | 33804 ft | 450 kts | 253° |
| 2026-04-23 11:15 | 23.61428 | 53.58732 | 33805 ft | 450 kts | 253° |
| 2026-04-23 11:15 | 23.59326 | 53.52323 | 33807 ft | 450 kts | 253° |
| 2026-04-23 11:16 | 23.57217 | 53.45902 | 33807 ft | 450 kts | 253° |
| 2026-04-23 11:16 | 23.55111 | 53.39502 | 33807 ft | 450 kts | 253° |
| 2026-04-23 11:17 | 23.52996 | 53.33082 | 33807 ft | 450 kts | 253° |
| 2026-04-23 11:17 | 23.50878 | 53.26666 | 33807 ft | 450 kts | 253° |
| 2026-04-23 11:18 | 23.48750 | 53.20229 | 33806 ft | 450 kts | 253° |
| 2026-04-23 11:18 | 23.46630 | 53.13825 | 33807 ft | 451 kts | 253° |
| 2026-04-23 11:19 | 23.44506 | 53.07419 | 33806 ft | 450 kts | 253° |
| 2026-04-23 11:19 | 23.42378 | 53.01011 | 33807 ft | 451 kts | 253° |
| 2026-04-23 11:20 | 23.39983 | 52.94662 | 33804 ft | 454 kts | 246° |
| 2026-04-23 11:20 | 23.36995 | 52.88611 | 33802 ft | 455 kts | 245° |
| 2026-04-23 11:21 | 23.33901 | 52.82602 | 33806 ft | 456 kts | 245° |
| 2026-04-23 11:21 | 23.30800 | 52.76610 | 33795 ft | 456 kts | 245° |
| 2026-04-23 11:22 | 23.27688 | 52.70581 | 33800 ft | 455 kts | 245° |
| 2026-04-23 11:22 | 23.24596 | 52.64582 | 33799 ft | 455 kts | 245° |
| 2026-04-23 11:23 | 23.21509 | 52.58595 | 33794 ft | 455 kts | 244° |
| 2026-04-23 11:23 | 23.18473 | 52.52528 | 33795 ft | 453 kts | 249° |
| 2026-04-23 11:24 | 23.16232 | 52.46200 | 33796 ft | 450 kts | 253° |
| 2026-04-23 11:24 | 23.14176 | 52.39756 | 33797 ft | 450 kts | 254° |
| 2026-04-23 11:25 | 23.12161 | 52.33319 | 33795 ft | 450 kts | 254° |
| 2026-04-23 11:25 | 23.10138 | 52.26913 | 33798 ft | 450 kts | 253° |
| 2026-04-23 11:26 | 23.08083 | 52.20446 | 33795 ft | 450 kts | 253° |
| 2026-04-23 11:26 | 23.06040 | 52.14036 | 33796 ft | 450 kts | 253° |
| 2026-04-23 11:27 | 23.03995 | 52.07629 | 33799 ft | 450 kts | 253° |
| 2026-04-23 11:27 | 23.01938 | 52.01192 | 33798 ft | 450 kts | 253° |
| 2026-04-23 11:28 | 22.99889 | 51.94792 | 33799 ft | 449 kts | 253° |
| 2026-04-23 11:28 | 22.97842 | 51.88405 | 33799 ft | 449 kts | 253° |
| 2026-04-23 11:29 | 22.95787 | 51.82004 | 33803 ft | 449 kts | 253° |
| 2026-04-23 11:29 | 22.93729 | 51.75603 | 33797 ft | 449 kts | 253° |
| 2026-04-23 11:30 | 22.91671 | 51.69212 | 33814 ft | 449 kts | 253° |
| 2026-04-23 11:30 | 22.89609 | 51.62820 | 33810 ft | 449 kts | 253° |
| 2026-04-23 11:31 | 22.87550 | 51.56445 | 33791 ft | 449 kts | 253° |
| 2026-04-23 11:31 | 22.85528 | 51.50053 | 33806 ft | 448 kts | 256° |
| 2026-04-23 11:32 | 22.84589 | 51.43431 | 33799 ft | 444 kts | 270° |
| 2026-04-23 11:32 | 22.84823 | 51.36729 | 33811 ft | 444 kts | 274° |
| 2026-04-23 11:33 | 22.85256 | 51.30059 | 33797 ft | 444 kts | 274° |
| 2026-04-23 11:33 | 22.85704 | 51.23373 | 33811 ft | 445 kts | 274° |
| 2026-04-23 11:34 | 22.86124 | 51.16710 | 33814 ft | 444 kts | 274° |
| 2026-04-23 11:34 | 22.86531 | 51.10022 | 33804 ft | 445 kts | 274° |
| 2026-04-23 11:35 | 22.86932 | 51.03326 | 33806 ft | 445 kts | 274° |
| 2026-04-23 11:35 | 22.87331 | 50.96636 | 33809 ft | 445 kts | 274° |
| 2026-04-23 11:36 | 22.87728 | 50.89950 | 33811 ft | 445 kts | 274° |
| 2026-04-23 11:36 | 22.88124 | 50.83224 | 33804 ft | 445 kts | 274° |
| 2026-04-23 11:37 | 22.88515 | 50.76538 | 33817 ft | 445 kts | 274° |
| 2026-04-23 11:37 | 22.88903 | 50.69858 | 33815 ft | 445 kts | 274° |
| 2026-04-23 11:38 | 22.89290 | 50.63144 | 33813 ft | 445 kts | 274° |
| 2026-04-23 11:38 | 22.89674 | 50.56441 | 33811 ft | 445 kts | 274° |
| 2026-04-23 11:39 | 22.90054 | 50.49754 | 33809 ft | 444 kts | 274° |
| 2026-04-23 11:39 | 22.90431 | 50.43065 | 33809 ft | 444 kts | 274° |
| 2026-04-23 11:40 | 22.90804 | 50.36397 | 33806 ft | 444 kts | 274° |
| 2026-04-23 11:40 | 22.91174 | 50.29737 | 33810 ft | 444 kts | 274° |
| 2026-04-23 11:41 | 22.91541 | 50.23081 | 33810 ft | 444 kts | 274° |
| 2026-04-23 11:41 | 22.91907 | 50.16392 | 33812 ft | 444 kts | 274° |
| 2026-04-23 11:42 | 22.92272 | 50.09671 | 33809 ft | 445 kts | 273° |
| 2026-04-23 11:42 | 22.92633 | 50.02983 | 33809 ft | 445 kts | 273° |
| 2026-04-23 11:43 | 22.92988 | 49.96322 | 33811 ft | 445 kts | 273° |
| 2026-04-23 11:43 | 22.93344 | 49.89616 | 33812 ft | 445 kts | 273° |
| 2026-04-23 11:44 | 22.93695 | 49.82935 | 33812 ft | 443 kts | 274° |
| 2026-04-23 11:44 | 22.94042 | 49.76277 | 33806 ft | 442 kts | 273° |
| 2026-04-23 11:45 | 22.94388 | 49.69615 | 33812 ft | 443 kts | 273° |
| 2026-04-23 11:45 | 22.94732 | 49.62906 | 33813 ft | 443 kts | 273° |
| 2026-04-23 11:46 | 22.95072 | 49.56230 | 33810 ft | 443 kts | 273° |
| 2026-04-23 11:46 | 22.95408 | 49.49580 | 33810 ft | 443 kts | 273° |
| 2026-04-23 11:47 | 22.95687 | 49.44015 | 33809 ft | 443 kts | 273° |
| 2026-04-23 11:47 | 22.96018 | 49.37353 | 33809 ft | 443 kts | 273° |
| 2026-04-23 11:48 | 22.96348 | 49.30646 | 33806 ft | 443 kts | 273° |
| 2026-04-23 11:48 | 22.96673 | 49.23999 | 33807 ft | 444 kts | 273° |
| 2026-04-23 11:49 | 22.96997 | 49.17311 | 33817 ft | 443 kts | 273° |
| 2026-04-23 11:49 | 22.97317 | 49.10639 | 33807 ft | 441 kts | 273° |
| 2026-04-23 11:50 | 22.97634 | 49.04008 | 33811 ft | 440 kts | 273° |
| 2026-04-23 11:50 | 22.97947 | 48.97373 | 33810 ft | 440 kts | 273° |
| 2026-04-23 11:51 | 22.98257 | 48.90758 | 33810 ft | 440 kts | 273° |
| 2026-04-23 11:51 | 22.98565 | 48.84121 | 33810 ft | 440 kts | 273° |
| 2026-04-23 11:52 | 22.98869 | 48.77496 | 33812 ft | 440 kts | 273° |
| 2026-04-23 11:52 | 22.99171 | 48.70861 | 33812 ft | 440 kts | 273° |
| 2026-04-23 11:53 | 22.99469 | 48.64251 | 33812 ft | 440 kts | 273° |
| 2026-04-23 11:53 | 22.99765 | 48.57633 | 33815 ft | 440 kts | 273° |
| 2026-04-23 11:54 | 23.00058 | 48.51012 | 33835 ft | 440 kts | 273° |
| 2026-04-23 11:54 | 23.00348 | 48.44393 | 33814 ft | 439 kts | 273° |
| 2026-04-23 11:55 | 23.00637 | 48.37749 | 33816 ft | 440 kts | 273° |
| 2026-04-23 11:55 | 23.00922 | 48.31135 | 33814 ft | 440 kts | 273° |
| 2026-04-23 11:56 | 23.01204 | 48.24501 | 33817 ft | 440 kts | 273° |
| 2026-04-23 11:56 | 23.01485 | 48.17858 | 33819 ft | 442 kts | 273° |
| 2026-04-23 11:57 | 23.01763 | 48.11191 | 33820 ft | 443 kts | 272° |
| 2026-04-23 11:57 | 23.02039 | 48.04518 | 33816 ft | 443 kts | 272° |
| 2026-04-23 11:58 | 23.02313 | 47.97836 | 33814 ft | 444 kts | 272° |
| 2026-04-23 11:58 | 23.02586 | 47.91115 | 33815 ft | 446 kts | 272° |
| 2026-04-23 11:59 | 23.03599 | 47.84511 | 33834 ft | 447 kts | 288° |
| 2026-04-23 11:59 | 23.04961 | 47.81499 | 33826 ft | 450 kts | 299° |
| 2026-04-23 11:59 | 23.06955 | 47.78832 | 33819 ft | 457 kts | 312° |
| 2026-04-23 11:59 | 23.09488 | 47.76742 | 33822 ft | 469 kts | 326° |
| 2026-04-23 12:00 | 23.12377 | 47.75030 | 33831 ft | 469 kts | 323° |
| 2026-04-23 12:00 | 23.17884 | 47.71251 | 33836 ft | 469 kts | 321° |
| 2026-04-23 12:01 | 23.23366 | 47.67403 | 33848 ft | 469 kts | 321° |
| 2026-04-23 12:01 | 23.28881 | 47.63615 | 33841 ft | 468 kts | 321° |
| 2026-04-23 12:02 | 23.34418 | 47.59858 | 33858 ft | 468 kts | 321° |
| 2026-04-23 12:02 | 23.39950 | 47.56110 | 33851 ft | 470 kts | 322° |
| 2026-04-23 12:03 | 23.45497 | 47.52350 | 33856 ft | 470 kts | 321° |
| 2026-04-23 12:03 | 23.51038 | 47.48596 | 33862 ft | 469 kts | 321° |
| 2026-04-23 12:04 | 23.56576 | 47.44832 | 33867 ft | 469 kts | 321° |
| 2026-04-23 12:04 | 23.62128 | 47.41054 | 33871 ft | 469 kts | 321° |
| 2026-04-23 12:05 | 23.67668 | 47.37281 | 33871 ft | 469 kts | 321° |
| 2026-04-23 12:05 | 23.73229 | 47.33490 | 33875 ft | 471 kts | 321° |
| 2026-04-23 12:06 | 23.78777 | 47.29706 | 33874 ft | 471 kts | 321° |
| 2026-04-23 12:06 | 23.87135 | 47.23999 | 33878 ft | 472 kts | 321° |
| 2026-04-23 12:07 | 23.92698 | 47.20195 | 33875 ft | 472 kts | 321° |
| 2026-04-23 12:07 | 23.98264 | 47.16384 | 33877 ft | 472 kts | 321° |
| 2026-04-23 12:08 | 24.03798 | 47.12592 | 33889 ft | 472 kts | 321° |
| 2026-04-23 12:08 | 24.09365 | 47.08778 | 33888 ft | 473 kts | 322° |
| 2026-04-23 12:09 | 24.15334 | 47.05555 | 33895 ft | 480 kts | 329° |
| 2026-04-23 12:09 | 24.21469 | 47.02664 | 33901 ft | 481 kts | 329° |
| 2026-04-23 12:10 | 24.27630 | 46.99823 | 33906 ft | 480 kts | 329° |
| 2026-04-23 12:10 | 24.33792 | 46.96970 | 33911 ft | 480 kts | 329° |
| 2026-04-23 12:11 | 24.39928 | 46.94112 | 33919 ft | 481 kts | 329° |
| 2026-04-23 12:11 | 24.46066 | 46.91252 | 33922 ft | 478 kts | 329° |
| 2026-04-23 12:12 | 24.52173 | 46.88399 | 33928 ft | 477 kts | 329° |
| 2026-04-23 12:12 | 24.58287 | 46.85538 | 33944 ft | 477 kts | 329° |
| 2026-04-23 12:13 | 24.64377 | 46.82690 | 33938 ft | 474 kts | 329° |
| 2026-04-23 12:13 | 24.70400 | 46.79867 | 33960 ft | 473 kts | 329° |
| 2026-04-23 12:14 | 24.76477 | 46.77015 | 33974 ft | 473 kts | 329° |
| 2026-04-23 12:14 | 24.82557 | 46.74157 | 33987 ft | 476 kts | 330° |
| 2026-04-23 12:15 | 24.88641 | 46.71296 | 33993 ft | 477 kts | 330° |
| 2026-04-23 12:15 | 24.94722 | 46.68414 | 33991 ft | 475 kts | 328° |
| 2026-04-23 12:16 | 25.00190 | 46.64562 | 33997 ft | 461 kts | 313° |
| 2026-04-23 12:16 | 25.04984 | 46.59882 | 33990 ft | 459 kts | 311° |
| 2026-04-23 12:17 | 25.09650 | 46.55088 | 33981 ft | 459 kts | 310° |
| 2026-04-23 12:17 | 25.14304 | 46.50285 | 33993 ft | 458 kts | 310° |
| 2026-04-23 12:18 | 25.18948 | 46.45516 | 33981 ft | 457 kts | 310° |
| 2026-04-23 12:18 | 25.23628 | 46.40720 | 33982 ft | 457 kts | 310° |
| 2026-04-23 12:19 | 25.28289 | 46.35942 | 33979 ft | 457 kts | 310° |
| 2026-04-23 12:19 | 25.32960 | 46.31146 | 33979 ft | 460 kts | 310° |
| 2026-04-23 12:20 | 25.37664 | 46.26308 | 33989 ft | 462 kts | 310° |
| 2026-04-23 12:20 | 25.42348 | 46.21491 | 33987 ft | 463 kts | 310° |
| 2026-04-23 12:21 | 25.47083 | 46.16616 | 34005 ft | 463 kts | 310° |
| 2026-04-23 12:21 | 25.51803 | 46.11745 | 33997 ft | 468 kts | 310° |
| 2026-04-23 12:22 | 25.56568 | 46.06825 | 33999 ft | 469 kts | 310° |
| 2026-04-23 12:22 | 25.61326 | 46.01911 | 33999 ft | 469 kts | 310° |
| 2026-04-23 12:23 | 25.66119 | 45.96961 | 34012 ft | 468 kts | 310° |
| 2026-04-23 12:23 | 25.70868 | 45.92038 | 34010 ft | 469 kts | 310° |
| 2026-04-23 12:24 | 25.75624 | 45.87100 | 34014 ft | 469 kts | 310° |
| 2026-04-23 12:24 | 25.80379 | 45.82162 | 34013 ft | 469 kts | 310° |
| 2026-04-23 12:25 | 25.85154 | 45.77198 | 34017 ft | 469 kts | 310° |
| 2026-04-23 12:25 | 25.89904 | 45.72258 | 34019 ft | 469 kts | 310° |
| 2026-04-23 12:26 | 25.94657 | 45.67303 | 34039 ft | 469 kts | 309° |
| 2026-04-23 12:26 | 25.99383 | 45.62372 | 34017 ft | 465 kts | 309° |
| 2026-04-23 12:27 | 26.04117 | 45.57426 | 34012 ft | 464 kts | 309° |
| 2026-04-23 12:27 | 26.08804 | 45.52522 | 34014 ft | 463 kts | 309° |
| 2026-04-23 12:28 | 26.13491 | 45.47613 | 34022 ft | 462 kts | 309° |
| 2026-04-23 12:28 | 26.18167 | 45.42714 | 34015 ft | 461 kts | 309° |
| 2026-04-23 12:29 | 26.22841 | 45.37814 | 34011 ft | 461 kts | 308° |
| 2026-04-23 12:29 | 26.27508 | 45.32907 | 34027 ft | 462 kts | 308° |
| 2026-04-23 12:30 | 26.32171 | 45.28008 | 34024 ft | 461 kts | 308° |
| 2026-04-23 12:30 | 26.36837 | 45.23118 | 34024 ft | 461 kts | 308° |
| 2026-04-23 12:31 | 26.41495 | 45.18228 | 34033 ft | 461 kts | 308° |
| 2026-04-23 12:31 | 26.46155 | 45.13335 | 34011 ft | 458 kts | 308° |
| 2026-04-23 12:32 | 26.50797 | 45.08451 | 34016 ft | 457 kts | 308° |
| 2026-04-23 12:32 | 26.55408 | 45.03592 | 34015 ft | 457 kts | 308° |
| 2026-04-23 12:33 | 26.60029 | 44.98720 | 34020 ft | 455 kts | 308° |
| 2026-04-23 12:33 | 26.64636 | 44.93864 | 34015 ft | 454 kts | 308° |
| 2026-04-23 12:34 | 26.69219 | 44.89020 | 34018 ft | 454 kts | 308° |
| 2026-04-23 12:34 | 26.73802 | 44.84170 | 34013 ft | 454 kts | 308° |
| 2026-04-23 12:35 | 26.78407 | 44.79298 | 34012 ft | 454 kts | 308° |
| 2026-04-23 12:35 | 26.82970 | 44.74455 | 34010 ft | 454 kts | 308° |
| 2026-04-23 12:36 | 26.87547 | 44.69582 | 34010 ft | 454 kts | 308° |
| 2026-04-23 12:36 | 26.91363 | 44.65515 | 34009 ft | 454 kts | 308° |
| 2026-04-23 12:37 | 26.95928 | 44.60650 | 34012 ft | 454 kts | 309° |
| 2026-04-23 12:37 | 27.00490 | 44.55787 | 34004 ft | 453 kts | 309° |
| 2026-04-23 12:38 | 27.05050 | 44.50916 | 34004 ft | 453 kts | 309° |
| 2026-04-23 12:38 | 27.09614 | 44.46020 | 34050 ft | 452 kts | 309° |
| 2026-04-23 12:39 | 27.11871 | 44.43598 | 34162 ft | 452 kts | 309° |
| 2026-04-23 12:39 | 27.14158 | 44.41144 | 34337 ft | 452 kts | 309° |
| 2026-04-23 12:39 | 27.16428 | 44.38707 | 34473 ft | 451 kts | 309° |
| 2026-04-23 12:39 | 27.18680 | 44.36296 | 34627 ft | 451 kts | 309° |
| 2026-04-23 12:40 | 27.20968 | 44.33846 | 34752 ft | 450 kts | 309° |
| 2026-04-23 12:40 | 27.23221 | 44.31428 | 34893 ft | 450 kts | 308° |
| 2026-04-23 12:40 | 27.25470 | 44.29014 | 35040 ft | 450 kts | 308° |
| 2026-04-23 12:40 | 27.27743 | 44.26570 | 35184 ft | 449 kts | 308° |
| 2026-04-23 12:41 | 27.29990 | 44.24154 | 35336 ft | 449 kts | 308° |
| 2026-04-23 12:41 | 27.32258 | 44.21715 | 35491 ft | 448 kts | 308° |
| 2026-04-23 12:41 | 27.34497 | 44.19306 | 35650 ft | 447 kts | 308° |
| 2026-04-23 12:41 | 27.36758 | 44.16872 | 35783 ft | 446 kts | 308° |
| 2026-04-23 12:42 | 27.38982 | 44.14476 | 35930 ft | 445 kts | 308° |
| 2026-04-23 12:42 | 27.41216 | 44.12067 | 36003 ft | 446 kts | 308° |
| 2026-04-23 12:42 | 27.45676 | 44.07253 | 35997 ft | 445 kts | 308° |
| 2026-04-23 12:43 | 27.50149 | 44.02422 | 36025 ft | 445 kts | 308° |
| 2026-04-23 12:43 | 27.54619 | 43.97587 | 35996 ft | 445 kts | 308° |
| 2026-04-23 12:44 | 27.59078 | 43.92759 | 35993 ft | 445 kts | 308° |
| 2026-04-23 12:44 | 27.63533 | 43.87929 | 35994 ft | 445 kts | 307° |
| 2026-04-23 12:45 | 27.67999 | 43.83082 | 36001 ft | 445 kts | 307° |
| 2026-04-23 12:45 | 27.72446 | 43.78250 | 35991 ft | 445 kts | 307° |
| 2026-04-23 12:46 | 27.76887 | 43.73419 | 35990 ft | 445 kts | 307° |
| 2026-04-23 12:46 | 27.81343 | 43.68565 | 35990 ft | 445 kts | 307° |
| 2026-04-23 12:47 | 27.85766 | 43.63731 | 35989 ft | 444 kts | 306° |
| 2026-04-23 12:47 | 27.90022 | 43.58677 | 35987 ft | 441 kts | 304° |
| 2026-04-23 12:48 | 27.94148 | 43.53583 | 35987 ft | 442 kts | 304° |
| 2026-04-23 12:48 | 27.98327 | 43.48474 | 35987 ft | 442 kts | 304° |
| 2026-04-23 12:49 | 28.02556 | 43.43353 | 35987 ft | 442 kts | 304° |
| 2026-04-23 12:49 | 28.06742 | 43.38298 | 35988 ft | 440 kts | 304° |
| 2026-04-23 12:50 | 28.10922 | 43.33244 | 35985 ft | 439 kts | 304° |
| 2026-04-23 12:50 | 28.15087 | 43.28195 | 35985 ft | 439 kts | 304° |
| 2026-04-23 12:51 | 28.19257 | 43.23133 | 35989 ft | 439 kts | 304° |
| 2026-04-23 12:51 | 28.23417 | 43.18077 | 35994 ft | 438 kts | 304° |
| 2026-04-23 12:52 | 28.27563 | 43.13032 | 35978 ft | 438 kts | 304° |
| 2026-04-23 12:52 | 28.31735 | 43.07950 | 36000 ft | 438 kts | 304° |
| 2026-04-23 12:53 | 28.35868 | 43.02910 | 35989 ft | 438 kts | 304° |
| 2026-04-23 12:53 | 28.40023 | 42.97836 | 35987 ft | 438 kts | 304° |
| 2026-04-23 12:54 | 28.44176 | 42.92758 | 35989 ft | 438 kts | 304° |
| 2026-04-23 12:54 | 28.48319 | 42.87687 | 35994 ft | 437 kts | 303° |
| 2026-04-23 12:55 | 28.52436 | 42.82644 | 35988 ft | 435 kts | 303° |
| 2026-04-23 12:55 | 28.56539 | 42.77609 | 35985 ft | 435 kts | 303° |
| 2026-04-23 12:56 | 28.60657 | 42.72546 | 35980 ft | 434 kts | 303° |
| 2026-04-23 12:56 | 28.64756 | 42.67503 | 35983 ft | 435 kts | 303° |
| 2026-04-23 12:57 | 28.68858 | 42.62458 | 35983 ft | 435 kts | 303° |
| 2026-04-23 12:57 | 28.72956 | 42.57399 | 35979 ft | 434 kts | 303° |
| 2026-04-23 12:58 | 28.77039 | 42.52352 | 35976 ft | 434 kts | 303° |
| 2026-04-23 12:58 | 28.81123 | 42.47299 | 35977 ft | 433 kts | 303° |
| 2026-04-23 12:59 | 28.85198 | 42.42253 | 35979 ft | 433 kts | 303° |
| 2026-04-23 12:59 | 28.89284 | 42.37191 | 35977 ft | 432 kts | 303° |
| 2026-04-23 13:00 | 28.93347 | 42.32149 | 35976 ft | 431 kts | 303° |
| 2026-04-23 13:00 | 28.97395 | 42.27117 | 35976 ft | 431 kts | 303° |
| 2026-04-23 13:01 | 29.01454 | 42.22064 | 35974 ft | 431 kts | 303° |
| 2026-04-23 13:01 | 29.12245 | 42.08611 | 35978 ft | 432 kts | 302° |
| 2026-04-23 13:02 | 29.28475 | 41.88275 | 35977 ft | 431 kts | 302° |
| 2026-04-23 13:02 | 29.44634 | 41.67928 | 35987 ft | 432 kts | 302° |
| 2026-04-23 13:03 | 29.60805 | 41.47460 | 35992 ft | 435 kts | 302° |
| 2026-04-23 13:03 | 29.77387 | 41.27244 | 35988 ft | 446 kts | 308° |
| 2026-04-23 13:04 | 29.96048 | 41.08085 | 35977 ft | 448 kts | 308° |
| 2026-04-23 13:04 | 30.14490 | 40.89031 | 35970 ft | 447 kts | 308° |
| 2026-04-23 13:05 | 30.33030 | 40.69776 | 35963 ft | 448 kts | 308° |
| 2026-04-23 13:05 | 30.51745 | 40.50503 | 35962 ft | 451 kts | 309° |
| 2026-04-23 13:06 | 30.79974 | 40.21429 | 35959 ft | 456 kts | 310° |
| 2026-04-23 13:07 | 30.99020 | 40.01678 | 35949 ft | 458 kts | 310° |
| 2026-04-23 13:07 | 31.18022 | 39.81858 | 35946 ft | 459 kts | 310° |
| 2026-04-23 13:08 | 31.37058 | 39.61893 | 35938 ft | 460 kts | 310° |
| 2026-04-23 13:08 | 31.56067 | 39.41844 | 35923 ft | 461 kts | 310° |
| 2026-04-23 13:09 | 31.75104 | 39.21645 | 35932 ft | 461 kts | 310° |
| 2026-04-23 13:09 | 31.85824 | 39.12935 | 35935 ft | 477 kts | 325° |
| 2026-04-23 13:09 | 31.97634 | 39.05986 | 35933 ft | 478 kts | 326° |
| 2026-04-23 13:10 | 32.21419 | 38.91973 | 35929 ft | 478 kts | 326° |
| 2026-04-23 13:10 | 32.45161 | 38.77889 | 35915 ft | 477 kts | 326° |
| 2026-04-23 13:11 | 32.68779 | 38.63807 | 35899 ft | 475 kts | 326° |
| 2026-04-23 13:11 | 32.92404 | 38.49629 | 35891 ft | 474 kts | 326° |
| 2026-04-23 13:12 | 33.15997 | 38.35393 | 35873 ft | 474 kts | 326° |
| 2026-04-23 13:12 | 33.39350 | 38.21169 | 35873 ft | 473 kts | 325° |
| 2026-04-23 13:13 | 33.62800 | 38.06890 | 35869 ft | 473 kts | 326° |
| 2026-04-23 13:13 | 33.85802 | 37.92081 | 35863 ft | 457 kts | 313° |
| 2026-04-23 13:13 | 33.93427 | 37.80264 | 35862 ft | 441 kts | 296° |
| 2026-04-23 13:14 | 33.99886 | 37.67755 | 35861 ft | 441 kts | 296° |
| 2026-04-23 13:14 | 34.12921 | 37.42662 | 35875 ft | 441 kts | 296° |
| 2026-04-23 13:15 | 34.22186 | 37.16185 | 35875 ft | 426 kts | 273° |
| 2026-04-23 13:15 | 34.24340 | 36.87649 | 35890 ft | 427 kts | 272° |
| 2026-04-23 13:16 | 34.26493 | 36.59097 | 35903 ft | 427 kts | 272° |
| 2026-04-23 13:16 | 34.27605 | 36.30430 | 35915 ft | 428 kts | 270° |
| 2026-04-23 13:17 | 34.28202 | 36.13986 | 35921 ft | 427 kts | 270° |
| 2026-04-23 13:17 | 34.28455 | 36.06814 | 35924 ft | 427 kts | 270° |
| 2026-04-23 13:18 | 34.28702 | 35.99654 | 35929 ft | 427 kts | 270° |
| 2026-04-23 13:18 | 34.29003 | 35.92450 | 35935 ft | 428 kts | 271° |
| 2026-04-23 13:19 | 34.29346 | 35.85260 | 35938 ft | 428 kts | 271° |
| 2026-04-23 13:19 | 34.29677 | 35.78111 | 35939 ft | 428 kts | 271° |
| 2026-04-23 13:20 | 34.30165 | 35.70923 | 35944 ft | 430 kts | 277° |
| 2026-04-23 13:20 | 34.31735 | 35.63926 | 35933 ft | 434 kts | 284° |
| 2026-04-23 13:21 | 34.33666 | 35.56980 | 35938 ft | 434 kts | 285° |
| 2026-04-23 13:21 | 34.35639 | 35.50077 | 35954 ft | 435 kts | 285° |
| 2026-04-23 13:22 | 34.37599 | 35.43162 | 35933 ft | 434 kts | 285° |
| 2026-04-23 13:22 | 34.39546 | 35.36230 | 35933 ft | 434 kts | 284° |
| 2026-04-23 13:23 | 34.41479 | 35.29313 | 35932 ft | 434 kts | 284° |
| 2026-04-23 13:23 | 34.43406 | 35.22398 | 35935 ft | 434 kts | 285° |
| 2026-04-23 13:24 | 34.45332 | 35.15475 | 35929 ft | 435 kts | 285° |
| 2026-04-23 13:24 | 34.47826 | 35.08779 | 35930 ft | 442 kts | 297° |
| 2026-04-23 13:25 | 34.51823 | 35.03015 | 35932 ft | 455 kts | 313° |
| 2026-04-23 13:25 | 34.57106 | 34.98631 | 35939 ft | 464 kts | 322° |
| 2026-04-23 13:26 | 34.62674 | 34.94698 | 35927 ft | 464 kts | 323° |
| 2026-04-23 13:26 | 34.68278 | 34.90797 | 35926 ft | 464 kts | 323° |
| 2026-04-23 13:27 | 34.73861 | 34.86860 | 35927 ft | 464 kts | 323° |
| 2026-04-23 13:27 | 34.79429 | 34.82896 | 35922 ft | 464 kts | 323° |
| 2026-04-23 13:28 | 34.84985 | 34.78927 | 35920 ft | 463 kts | 323° |
| 2026-04-23 13:28 | 34.90542 | 34.74951 | 35918 ft | 463 kts | 323° |
| 2026-04-23 13:29 | 34.96101 | 34.70969 | 35920 ft | 462 kts | 323° |
| 2026-04-23 13:29 | 35.01616 | 34.67014 | 35920 ft | 462 kts | 323° |
| 2026-04-23 13:30 | 35.07158 | 34.63032 | 35914 ft | 462 kts | 323° |
| 2026-04-23 13:30 | 35.12698 | 34.59045 | 35916 ft | 462 kts | 323° |
| 2026-04-23 13:31 | 35.17280 | 34.55743 | 35917 ft | 461 kts | 323° |
| 2026-04-23 13:31 | 35.23726 | 34.51090 | 35911 ft | 461 kts | 323° |
| 2026-04-23 13:32 | 35.29254 | 34.47093 | 35924 ft | 461 kts | 323° |
| 2026-04-23 13:32 | 35.33867 | 34.43753 | 35908 ft | 460 kts | 323° |
| 2026-04-23 13:33 | 35.39373 | 34.39760 | 35905 ft | 460 kts | 323° |
| 2026-04-23 13:33 | 35.44865 | 34.35771 | 35905 ft | 460 kts | 323° |
| 2026-04-23 13:34 | 35.50361 | 34.31771 | 35906 ft | 460 kts | 323° |
| 2026-04-23 13:34 | 35.55868 | 34.27758 | 35907 ft | 460 kts | 323° |
| 2026-04-23 13:35 | 35.61353 | 34.23755 | 35906 ft | 460 kts | 323° |
| 2026-04-23 13:35 | 35.66853 | 34.19735 | 35910 ft | 459 kts | 322° |
| 2026-04-23 13:36 | 35.72332 | 34.15724 | 35901 ft | 458 kts | 322° |
| 2026-04-23 13:36 | 35.77799 | 34.11714 | 35905 ft | 458 kts | 322° |
| 2026-04-23 13:37 | 35.83260 | 34.07701 | 35905 ft | 458 kts | 322° |
| 2026-04-23 13:37 | 35.88761 | 34.03654 | 35902 ft | 458 kts | 322° |
| 2026-04-23 13:38 | 35.94193 | 33.99641 | 35901 ft | 458 kts | 322° |
| 2026-04-23 13:38 | 35.99630 | 33.95536 | 35902 ft | 458 kts | 322° |
| 2026-04-23 13:39 | 36.05059 | 33.91413 | 35901 ft | 458 kts | 321° |
| 2026-04-23 13:39 | 36.10502 | 33.87282 | 35900 ft | 458 kts | 321° |
| 2026-04-23 13:40 | 36.15923 | 33.83170 | 35899 ft | 458 kts | 321° |
| 2026-04-23 13:40 | 36.21368 | 33.79035 | 35898 ft | 459 kts | 321° |
| 2026-04-23 13:41 | 36.26785 | 33.74915 | 35895 ft | 459 kts | 322° |
| 2026-04-23 13:41 | 36.32239 | 33.70762 | 35892 ft | 459 kts | 322° |
| 2026-04-23 13:42 | 36.37665 | 33.66617 | 35889 ft | 459 kts | 321° |
| 2026-04-23 13:42 | 36.43098 | 33.62461 | 35883 ft | 458 kts | 321° |
| 2026-04-23 13:43 | 36.48523 | 33.58303 | 35885 ft | 460 kts | 321° |
| 2026-04-23 13:43 | 36.53982 | 33.54113 | 35883 ft | 461 kts | 321° |
| 2026-04-23 13:44 | 36.59440 | 33.49918 | 35883 ft | 461 kts | 321° |
| 2026-04-23 13:44 | 36.64870 | 33.45739 | 35864 ft | 461 kts | 321° |
| 2026-04-23 13:45 | 36.70326 | 33.41532 | 35915 ft | 460 kts | 321° |
| 2026-04-23 13:45 | 36.73031 | 33.39443 | 36079 ft | 460 kts | 321° |
| 2026-04-23 13:45 | 36.75760 | 33.37333 | 36231 ft | 460 kts | 321° |
| 2026-04-23 13:45 | 36.78462 | 33.35242 | 36379 ft | 460 kts | 321° |
| 2026-04-23 13:46 | 36.81193 | 33.33128 | 36529 ft | 460 kts | 321° |
| 2026-04-23 13:46 | 36.83877 | 33.31022 | 36699 ft | 458 kts | 319° |
| 2026-04-23 13:46 | 36.86406 | 33.28619 | 36847 ft | 451 kts | 312° |
| 2026-04-23 13:46 | 36.88630 | 33.25940 | 36994 ft | 446 kts | 308° |
| 2026-04-23 13:47 | 36.90798 | 33.23122 | 37157 ft | 445 kts | 307° |
| 2026-04-23 13:47 | 36.92885 | 33.20321 | 37297 ft | 443 kts | 307° |
| 2026-04-23 13:47 | 36.94958 | 33.17490 | 37477 ft | 442 kts | 306° |
| 2026-04-23 13:47 | 36.97047 | 33.14621 | 37658 ft | 441 kts | 306° |
| 2026-04-23 13:48 | 36.99095 | 33.11807 | 37815 ft | 441 kts | 306° |
| 2026-04-23 13:48 | 37.03237 | 33.06124 | 37827 ft | 445 kts | 306° |
| 2026-04-23 13:49 | 37.07428 | 33.00387 | 37820 ft | 445 kts | 306° |
| 2026-04-23 13:49 | 37.11622 | 32.94643 | 37822 ft | 446 kts | 306° |
| 2026-04-23 13:50 | 37.15775 | 32.88952 | 37825 ft | 446 kts | 306° |
| 2026-04-23 13:50 | 37.19956 | 32.83215 | 37813 ft | 444 kts | 306° |
| 2026-04-23 13:51 | 37.24113 | 32.77494 | 37808 ft | 443 kts | 306° |
| 2026-04-23 13:51 | 37.28250 | 32.71788 | 37809 ft | 444 kts | 306° |
| 2026-04-23 13:52 | 37.32416 | 32.66034 | 37810 ft | 444 kts | 306° |
| 2026-04-23 13:52 | 37.36556 | 32.60304 | 37813 ft | 444 kts | 306° |
| 2026-04-23 13:53 | 37.40706 | 32.54553 | 37817 ft | 444 kts | 306° |
| 2026-04-23 13:53 | 37.44854 | 32.48792 | 37821 ft | 445 kts | 306° |
| 2026-04-23 13:54 | 37.49000 | 32.43024 | 37820 ft | 444 kts | 306° |
| 2026-04-23 13:54 | 37.53143 | 32.37250 | 37826 ft | 444 kts | 306° |
| 2026-04-23 13:55 | 37.57282 | 32.31473 | 37829 ft | 444 kts | 306° |
| 2026-04-23 13:55 | 37.61413 | 32.25695 | 37837 ft | 444 kts | 306° |
| 2026-04-23 13:56 | 37.65547 | 32.19901 | 37838 ft | 444 kts | 306° |
| 2026-04-23 13:56 | 37.69665 | 32.14123 | 37848 ft | 443 kts | 306° |
| 2026-04-23 13:57 | 37.73795 | 32.08315 | 37868 ft | 444 kts | 306° |
| 2026-04-23 13:57 | 37.77905 | 32.02526 | 37852 ft | 444 kts | 306° |
| 2026-04-23 13:58 | 37.82039 | 31.96690 | 37869 ft | 445 kts | 306° |
| 2026-04-23 13:58 | 37.86159 | 31.90865 | 37878 ft | 444 kts | 306° |
| 2026-04-23 13:59 | 37.90273 | 31.85039 | 37884 ft | 444 kts | 306° |
| 2026-04-23 13:59 | 37.94386 | 31.79204 | 37917 ft | 445 kts | 306° |
| 2026-04-23 14:00 | 37.97810 | 31.74337 | 37906 ft | 445 kts | 306° |
| 2026-04-23 14:00 | 38.02599 | 31.67515 | 37904 ft | 445 kts | 306° |
| 2026-04-23 14:01 | 38.06719 | 31.61638 | 37914 ft | 445 kts | 306° |
| 2026-04-23 14:01 | 38.10831 | 31.55768 | 37926 ft | 445 kts | 306° |
| 2026-04-23 14:02 | 38.14944 | 31.49880 | 37937 ft | 445 kts | 306° |
| 2026-04-23 14:02 | 38.19044 | 31.43993 | 37925 ft | 444 kts | 306° |
| 2026-04-23 14:03 | 38.23127 | 31.38125 | 37942 ft | 444 kts | 306° |
| 2026-04-23 14:03 | 38.27219 | 31.32229 | 37939 ft | 444 kts | 306° |
| 2026-04-23 14:04 | 38.31295 | 31.26345 | 37940 ft | 444 kts | 306° |
| 2026-04-23 14:04 | 38.35366 | 31.20461 | 37933 ft | 443 kts | 306° |
| 2026-04-23 14:05 | 38.39449 | 31.14548 | 37940 ft | 443 kts | 306° |
| 2026-04-23 14:05 | 38.43507 | 31.08660 | 37965 ft | 443 kts | 306° |
| 2026-04-23 14:06 | 38.47956 | 31.03183 | 37946 ft | 452 kts | 317° |
| 2026-04-23 14:06 | 38.53535 | 30.99279 | 37948 ft | 464 kts | 330° |
| 2026-04-23 14:07 | 38.59574 | 30.96274 | 37976 ft | 467 kts | 332° |
| 2026-04-23 14:07 | 38.68745 | 30.91956 | 37986 ft | 468 kts | 332° |
| 2026-04-23 14:08 | 38.74857 | 30.89039 | 37968 ft | 469 kts | 332° |
| 2026-04-23 14:08 | 38.80949 | 30.86102 | 37971 ft | 469 kts | 332° |
| 2026-04-23 14:09 | 38.87011 | 30.83169 | 37972 ft | 469 kts | 332° |
| 2026-04-23 14:09 | 38.93131 | 30.80201 | 37986 ft | 469 kts | 332° |
| 2026-04-23 14:10 | 38.99236 | 30.77243 | 37976 ft | 469 kts | 332° |
| 2026-04-23 14:10 | 39.05308 | 30.74290 | 37973 ft | 469 kts | 332° |
| 2026-04-23 14:11 | 39.11415 | 30.71312 | 37979 ft | 469 kts | 332° |
| 2026-04-23 14:11 | 39.17499 | 30.68341 | 37987 ft | 469 kts | 332° |
| 2026-04-23 14:12 | 39.23598 | 30.65360 | 37978 ft | 469 kts | 332° |
| 2026-04-23 14:12 | 39.29726 | 30.62358 | 37975 ft | 469 kts | 332° |
| 2026-04-23 14:13 | 39.35801 | 30.59376 | 37980 ft | 469 kts | 332° |
| 2026-04-23 14:13 | 39.41901 | 30.56376 | 37976 ft | 469 kts | 332° |
| 2026-04-23 14:14 | 39.48015 | 30.53364 | 37984 ft | 470 kts | 332° |
| 2026-04-23 14:14 | 39.54130 | 30.50347 | 37960 ft | 470 kts | 332° |
| 2026-04-23 14:15 | 39.60138 | 30.47132 | 37962 ft | 467 kts | 329° |
| 2026-04-23 14:15 | 39.66045 | 30.43588 | 37971 ft | 467 kts | 328° |
| 2026-04-23 14:16 | 39.71915 | 30.40070 | 37965 ft | 468 kts | 329° |
| 2026-04-23 14:16 | 39.77852 | 30.36572 | 37968 ft | 470 kts | 329° |
| 2026-04-23 14:17 | 39.83832 | 30.33074 | 37962 ft | 470 kts | 329° |
| 2026-04-23 14:17 | 39.89799 | 30.29580 | 37963 ft | 471 kts | 330° |
| 2026-04-23 14:18 | 39.95782 | 30.26069 | 37966 ft | 472 kts | 330° |
| 2026-04-23 14:18 | 40.01767 | 30.22548 | 37968 ft | 471 kts | 330° |
| 2026-04-23 14:19 | 40.07712 | 30.19043 | 37994 ft | 471 kts | 330° |
| 2026-04-23 14:19 | 40.13713 | 30.15495 | 37978 ft | 473 kts | 330° |
| 2026-04-23 14:20 | 40.19674 | 30.11967 | 37982 ft | 473 kts | 330° |
| 2026-04-23 14:20 | 40.25698 | 30.08392 | 37982 ft | 474 kts | 330° |
| 2026-04-23 14:21 | 40.31678 | 30.04840 | 37995 ft | 474 kts | 330° |
| 2026-04-23 14:21 | 40.37705 | 30.01252 | 37993 ft | 475 kts | 330° |
| 2026-04-23 14:22 | 40.43683 | 29.97686 | 37996 ft | 475 kts | 330° |
| 2026-04-23 14:22 | 40.49714 | 29.94082 | 38008 ft | 475 kts | 330° |
| 2026-04-23 14:23 | 40.55716 | 29.90484 | 38011 ft | 475 kts | 330° |
| 2026-04-23 14:23 | 40.61743 | 29.86868 | 38013 ft | 476 kts | 330° |
| 2026-04-23 14:24 | 40.67769 | 29.83241 | 38013 ft | 476 kts | 330° |
| 2026-04-23 14:24 | 40.73793 | 29.79613 | 38012 ft | 477 kts | 331° |
| 2026-04-23 14:25 | 40.79821 | 29.75974 | 38012 ft | 477 kts | 331° |
| 2026-04-23 14:25 | 40.85836 | 29.72337 | 38011 ft | 477 kts | 331° |
| 2026-04-23 14:26 | 40.91869 | 29.68679 | 38004 ft | 477 kts | 331° |
| 2026-04-23 14:26 | 40.97911 | 29.65009 | 38002 ft | 477 kts | 331° |
| 2026-04-23 14:27 | 41.03936 | 29.61341 | 37996 ft | 477 kts | 331° |
| 2026-04-23 14:27 | 41.09950 | 29.57673 | 37997 ft | 477 kts | 331° |
| 2026-04-23 14:28 | 41.15989 | 29.53983 | 37991 ft | 478 kts | 331° |
| 2026-04-23 14:28 | 41.21156 | 29.51218 | 37992 ft | 482 kts | 339° |
| 2026-04-23 14:29 | 41.27540 | 29.48658 | 37992 ft | 483 kts | 340° |
| 2026-04-23 14:29 | 41.34003 | 29.46209 | 37988 ft | 483 kts | 341° |
| 2026-04-23 14:30 | 41.47879 | 29.40959 | 37973 ft | 483 kts | 341° |
| 2026-04-23 14:30 | 41.73691 | 29.31067 | 37982 ft | 482 kts | 341° |
| 2026-04-23 14:31 | 41.99481 | 29.21100 | 37965 ft | 480 kts | 341° |
| 2026-04-23 14:31 | 42.23768 | 29.07316 | 37959 ft | 476 kts | 321° |
| 2026-04-23 14:32 | 42.44538 | 28.85336 | 37952 ft | 475 kts | 321° |
| 2026-04-23 14:32 | 42.65298 | 28.63272 | 37947 ft | 474 kts | 321° |
| 2026-04-23 14:33 | 42.86048 | 28.41020 | 37923 ft | 474 kts | 322° |
| 2026-04-23 14:33 | 43.06602 | 28.18784 | 37914 ft | 472 kts | 322° |
| 2026-04-23 14:34 | 43.27251 | 27.96249 | 37914 ft | 472 kts | 323° |
| 2026-04-23 14:34 | 43.47715 | 27.73716 | 37906 ft | 472 kts | 323° |
| 2026-04-23 14:35 | 43.68183 | 27.50973 | 37877 ft | 470 kts | 323° |
| 2026-04-23 14:35 | 43.88443 | 27.28260 | 37873 ft | 468 kts | 323° |
| 2026-04-23 14:36 | 44.08619 | 27.05437 | 37868 ft | 468 kts | 323° |
| 2026-04-23 14:36 | 44.28753 | 26.82452 | 37861 ft | 468 kts | 322° |
| 2026-04-23 14:37 | 44.48786 | 26.59372 | 37851 ft | 469 kts | 322° |
| 2026-04-23 14:37 | 44.68808 | 26.36090 | 37850 ft | 467 kts | 322° |
| 2026-04-23 14:38 | 44.88724 | 26.12718 | 37849 ft | 464 kts | 323° |
| 2026-04-23 14:38 | 45.08642 | 25.89123 | 37852 ft | 470 kts | 322° |
| 2026-04-23 14:39 | 45.28563 | 25.65295 | 37867 ft | 461 kts | 322° |
| 2026-04-23 14:39 | 45.48134 | 25.41676 | 37888 ft | 460 kts | 322° |
| 2026-04-23 14:40 | 45.67570 | 25.17990 | 37906 ft | 463 kts | 322° |
| 2026-04-23 14:40 | 45.77135 | 25.06252 | 37908 ft | 464 kts | 322° |
| 2026-04-23 14:41 | 45.84023 | 24.97764 | 37913 ft | 464 kts | 322° |
| 2026-04-23 14:41 | 46.03481 | 24.73631 | 37914 ft | 463 kts | 322° |
| 2026-04-23 14:42 | 46.22918 | 24.49290 | 37911 ft | 462 kts | 322° |
| 2026-04-23 14:42 | 46.42179 | 24.24934 | 37926 ft | 462 kts | 322° |
| 2026-04-23 14:43 | 46.61390 | 24.00403 | 37936 ft | 458 kts | 322° |
| 2026-04-23 14:43 | 46.80491 | 23.75773 | 37913 ft | 458 kts | 321° |
| 2026-04-23 14:44 | 46.99552 | 23.50948 | 37926 ft | 458 kts | 321° |
| 2026-04-23 14:44 | 47.18509 | 23.26013 | 37916 ft | 457 kts | 321° |
| 2026-04-23 14:45 | 47.37311 | 23.01034 | 37890 ft | 457 kts | 321° |
| 2026-04-23 14:45 | 47.56097 | 22.75821 | 37915 ft | 456 kts | 320° |
| 2026-04-23 14:46 | 47.74876 | 22.50365 | 37922 ft | 456 kts | 320° |
| 2026-04-23 14:46 | 47.92788 | 22.23463 | 37930 ft | 458 kts | 316° |
| 2026-04-23 14:47 | 48.10365 | 21.95938 | 37925 ft | 457 kts | 316° |
| 2026-04-23 14:47 | 48.27841 | 21.68306 | 37927 ft | 458 kts | 316° |
| 2026-04-23 14:48 | 48.45344 | 21.40333 | 37942 ft | 457 kts | 316° |
| 2026-04-23 14:48 | 48.62748 | 21.14526 | 37940 ft | 456 kts | 321° |
| 2026-04-23 14:49 | 48.67470 | 21.08091 | 37939 ft | 457 kts | 320° |
| 2026-04-23 14:49 | 48.72143 | 21.01603 | 37941 ft | 456 kts | 320° |
| 2026-04-23 14:50 | 48.76785 | 20.95108 | 37942 ft | 454 kts | 320° |
| 2026-04-23 14:50 | 48.81416 | 20.88611 | 37945 ft | 456 kts | 320° |
| 2026-04-23 14:51 | 48.86082 | 20.82053 | 37944 ft | 456 kts | 320° |
| 2026-04-23 14:51 | 48.90721 | 20.75519 | 37945 ft | 456 kts | 320° |
| 2026-04-23 14:52 | 48.95376 | 20.68945 | 37945 ft | 456 kts | 320° |
| 2026-04-23 14:52 | 49.00025 | 20.62360 | 37951 ft | 457 kts | 320° |
| 2026-04-23 14:53 | 49.04648 | 20.55792 | 37960 ft | 456 kts | 321° |
| 2026-04-23 14:53 | 49.09296 | 20.49172 | 37962 ft | 455 kts | 321° |
| 2026-04-23 14:54 | 49.13906 | 20.42591 | 37966 ft | 455 kts | 321° |
| 2026-04-23 14:54 | 49.18515 | 20.35994 | 37967 ft | 455 kts | 321° |
| 2026-04-23 14:55 | 49.23130 | 20.29371 | 37967 ft | 456 kts | 321° |
| 2026-04-23 14:55 | 49.27771 | 20.22692 | 37979 ft | 458 kts | 321° |
| 2026-04-23 14:56 | 49.32411 | 20.16011 | 37976 ft | 457 kts | 322° |
| 2026-04-23 14:56 | 49.37260 | 20.09714 | 37994 ft | 455 kts | 325° |
| 2026-04-23 14:57 | 49.42190 | 20.03623 | 37992 ft | 455 kts | 325° |
| 2026-04-23 14:57 | 49.47070 | 19.97501 | 38005 ft | 457 kts | 324° |
| 2026-04-23 14:58 | 49.51983 | 19.91235 | 38003 ft | 458 kts | 324° |
| 2026-04-23 14:58 | 49.56872 | 19.84951 | 38009 ft | 458 kts | 324° |
| 2026-04-23 14:59 | 49.61752 | 19.78662 | 38015 ft | 458 kts | 324° |
| 2026-04-23 14:59 | 49.66638 | 19.72351 | 37979 ft | 457 kts | 324° |
| 2026-04-23 15:00 | 49.71510 | 19.66043 | 38020 ft | 457 kts | 324° |
| 2026-04-23 15:00 | 49.76364 | 19.59745 | 38018 ft | 458 kts | 324° |
| 2026-04-23 15:01 | 49.81244 | 19.53394 | 38024 ft | 458 kts | 324° |
| 2026-04-23 15:01 | 49.86121 | 19.47030 | 38022 ft | 458 kts | 324° |
| 2026-04-23 15:02 | 49.90985 | 19.40665 | 38023 ft | 458 kts | 324° |
| 2026-04-23 15:02 | 49.95855 | 19.34276 | 38035 ft | 459 kts | 324° |
| 2026-04-23 15:03 | 50.00725 | 19.27868 | 38032 ft | 458 kts | 324° |
| 2026-04-23 15:03 | 50.05587 | 19.21452 | 38032 ft | 458 kts | 324° |
| 2026-04-23 15:04 | 50.10430 | 19.15045 | 38034 ft | 458 kts | 324° |
| 2026-04-23 15:04 | 50.15271 | 19.08622 | 38026 ft | 458 kts | 324° |
| 2026-04-23 15:05 | 50.20119 | 19.02173 | 38047 ft | 458 kts | 324° |
| 2026-04-23 15:05 | 50.24954 | 18.95722 | 38055 ft | 458 kts | 325° |
| 2026-04-23 15:06 | 50.29772 | 18.89274 | 38048 ft | 453 kts | 325° |
| 2026-04-23 15:06 | 50.34539 | 18.82879 | 38044 ft | 452 kts | 325° |
| 2026-04-23 15:07 | 50.39338 | 18.76426 | 38028 ft | 452 kts | 325° |
| 2026-04-23 15:07 | 50.44093 | 18.70016 | 38047 ft | 452 kts | 325° |
| 2026-04-23 15:08 | 50.48843 | 18.63592 | 38047 ft | 452 kts | 325° |
| 2026-04-23 15:09 | 50.56007 | 18.53869 | 38047 ft | 452 kts | 325° |
| 2026-04-23 15:09 | 50.60753 | 18.47402 | 38051 ft | 450 kts | 325° |
| 2026-04-23 15:10 | 50.64674 | 18.42049 | 38051 ft | 449 kts | 325° |
| 2026-04-23 15:10 | 50.70289 | 18.34790 | 38056 ft | 447 kts | 328° |
| 2026-04-23 15:11 | 50.75252 | 18.28831 | 38053 ft | 446 kts | 328° |
| 2026-04-23 15:11 | 50.80153 | 18.22892 | 38062 ft | 447 kts | 328° |
| 2026-04-23 15:12 | 50.85055 | 18.16855 | 38060 ft | 447 kts | 328° |
| 2026-04-23 15:12 | 50.89937 | 18.10793 | 38055 ft | 446 kts | 328° |
| 2026-04-23 15:13 | 50.94824 | 18.04705 | 38060 ft | 446 kts | 328° |
| 2026-04-23 15:13 | 50.99708 | 17.98610 | 38066 ft | 446 kts | 328° |
| 2026-04-23 15:14 | 51.04560 | 17.92538 | 38081 ft | 446 kts | 327° |
| 2026-04-23 15:14 | 51.09429 | 17.86430 | 38069 ft | 446 kts | 327° |
| 2026-04-23 15:15 | 51.14291 | 17.80313 | 38066 ft | 446 kts | 327° |
| 2026-04-23 15:15 | 51.19162 | 17.74170 | 38072 ft | 446 kts | 327° |
| 2026-04-23 15:16 | 51.24030 | 17.68008 | 38075 ft | 445 kts | 327° |
| 2026-04-23 15:16 | 51.28870 | 17.61868 | 38079 ft | 445 kts | 327° |
| 2026-04-23 15:17 | 51.33711 | 17.55711 | 38077 ft | 445 kts | 327° |
| 2026-04-23 15:17 | 51.38554 | 17.49534 | 38076 ft | 445 kts | 327° |
| 2026-04-23 15:18 | 51.43383 | 17.43357 | 38076 ft | 446 kts | 327° |
| 2026-04-23 15:18 | 51.48235 | 17.37139 | 38079 ft | 445 kts | 327° |
| 2026-04-23 15:19 | 51.53079 | 17.31085 | 38092 ft | 444 kts | 328° |
| 2026-04-23 15:19 | 51.57994 | 17.25004 | 38083 ft | 443 kts | 328° |
| 2026-04-23 15:20 | 51.62036 | 17.19978 | 38095 ft | 444 kts | 328° |
| 2026-04-23 15:20 | 51.67729 | 17.12855 | 38085 ft | 444 kts | 327° |
| 2026-04-23 15:21 | 51.72590 | 17.06745 | 38091 ft | 445 kts | 327° |
| 2026-04-23 15:21 | 51.77476 | 17.00586 | 38096 ft | 445 kts | 327° |
| 2026-04-23 15:22 | 51.82342 | 16.94433 | 38098 ft | 443 kts | 327° |
| 2026-04-23 15:22 | 51.87197 | 16.88278 | 38097 ft | 443 kts | 327° |
| 2026-04-23 15:23 | 51.92021 | 16.82148 | 38095 ft | 443 kts | 327° |
| 2026-04-23 15:23 | 51.96888 | 16.75946 | 38101 ft | 443 kts | 327° |
| 2026-04-23 15:24 | 52.01712 | 16.69781 | 38097 ft | 444 kts | 327° |
| 2026-04-23 15:24 | 52.06550 | 16.63579 | 38109 ft | 444 kts | 327° |
| 2026-04-23 15:25 | 52.10565 | 16.58418 | 38102 ft | 442 kts | 327° |
| 2026-04-23 15:25 | 52.15379 | 16.52213 | 38111 ft | 440 kts | 327° |
| 2026-04-23 15:26 | 52.20180 | 16.46011 | 38079 ft | 440 kts | 326° |
| 2026-04-23 15:26 | 52.24990 | 16.39781 | 38110 ft | 442 kts | 326° |
| 2026-04-23 15:27 | 52.29789 | 16.33544 | 38110 ft | 442 kts | 326° |
| 2026-04-23 15:27 | 52.34593 | 16.27283 | 38109 ft | 442 kts | 326° |
| 2026-04-23 15:28 | 52.39392 | 16.21010 | 38116 ft | 442 kts | 326° |
| 2026-04-23 15:28 | 52.44189 | 16.14723 | 38111 ft | 442 kts | 326° |
| 2026-04-23 15:29 | 52.48987 | 16.08416 | 38126 ft | 443 kts | 326° |
| 2026-04-23 15:29 | 52.53835 | 16.02027 | 38125 ft | 445 kts | 326° |
| 2026-04-23 15:30 | 52.58636 | 15.95678 | 38131 ft | 445 kts | 326° |
| 2026-04-23 15:30 | 52.63461 | 15.89280 | 38130 ft | 445 kts | 326° |
| 2026-04-23 15:31 | 52.68276 | 15.82875 | 38138 ft | 445 kts | 326° |
| 2026-04-23 15:31 | 52.73043 | 15.76517 | 38135 ft | 442 kts | 326° |
| 2026-04-23 15:32 | 52.77839 | 15.70104 | 38133 ft | 444 kts | 325° |
| 2026-04-23 15:32 | 52.82655 | 15.63645 | 38138 ft | 445 kts | 325° |
| 2026-04-23 15:33 | 52.87470 | 15.57165 | 38140 ft | 445 kts | 325° |
| 2026-04-23 15:33 | 52.92248 | 15.50716 | 38146 ft | 445 kts | 325° |
| 2026-04-23 15:34 | 52.97057 | 15.44206 | 38145 ft | 445 kts | 325° |
| 2026-04-23 15:34 | 53.01836 | 15.37719 | 38125 ft | 444 kts | 324° |
| 2026-04-23 15:35 | 53.06619 | 15.31207 | 38151 ft | 445 kts | 324° |
| 2026-04-23 15:35 | 53.11394 | 15.24686 | 38152 ft | 445 kts | 324° |
| 2026-04-23 15:36 | 53.16184 | 15.18127 | 38151 ft | 445 kts | 324° |
| 2026-04-23 15:36 | 53.20964 | 15.11561 | 38151 ft | 445 kts | 324° |
| 2026-04-23 15:37 | 53.25745 | 15.04973 | 38160 ft | 445 kts | 324° |
| 2026-04-23 15:37 | 53.30501 | 14.98401 | 38167 ft | 445 kts | 324° |
| 2026-04-23 15:38 | 53.35267 | 14.91793 | 38157 ft | 443 kts | 324° |
| 2026-04-23 15:38 | 53.39989 | 14.85147 | 38160 ft | 444 kts | 322° |
| 2026-04-23 15:39 | 53.44482 | 14.78057 | 38160 ft | 445 kts | 320° |
| 2026-04-23 15:39 | 53.48933 | 14.70815 | 38158 ft | 445 kts | 320° |
| 2026-04-23 15:40 | 53.53410 | 14.63620 | 38159 ft | 445 kts | 321° |
| 2026-04-23 15:40 | 53.57890 | 14.56480 | 38162 ft | 447 kts | 320° |
| 2026-04-23 15:41 | 53.62398 | 14.49293 | 38167 ft | 448 kts | 320° |
| 2026-04-23 15:41 | 53.66921 | 14.42054 | 38163 ft | 446 kts | 320° |
| 2026-04-23 15:42 | 53.71402 | 14.34858 | 38162 ft | 445 kts | 320° |
| 2026-04-23 15:42 | 53.75921 | 14.27751 | 38159 ft | 443 kts | 324° |
| 2026-04-23 15:43 | 53.80743 | 14.21320 | 38145 ft | 442 kts | 325° |
| 2026-04-23 15:43 | 53.85618 | 14.14991 | 38157 ft | 445 kts | 326° |
| 2026-04-23 15:44 | 53.90545 | 14.08611 | 38157 ft | 445 kts | 326° |
| 2026-04-23 15:44 | 53.95471 | 14.02202 | 38162 ft | 444 kts | 325° |
| 2026-04-23 15:45 | 54.00335 | 13.95843 | 38164 ft | 443 kts | 325° |
| 2026-04-23 15:45 | 54.05242 | 13.89408 | 38162 ft | 443 kts | 325° |
| 2026-04-23 15:46 | 54.10104 | 13.83012 | 38163 ft | 443 kts | 325° |
| 2026-04-23 15:46 | 54.15001 | 13.76553 | 38165 ft | 447 kts | 325° |
| 2026-04-23 15:47 | 54.19914 | 13.70050 | 38159 ft | 448 kts | 324° |
| 2026-04-23 15:47 | 54.24839 | 13.63509 | 38169 ft | 447 kts | 324° |
| 2026-04-23 15:48 | 54.29721 | 13.57007 | 38164 ft | 445 kts | 324° |
| 2026-04-23 15:48 | 54.34600 | 13.50498 | 38151 ft | 445 kts | 324° |
| 2026-04-23 15:49 | 54.39475 | 13.43971 | 38145 ft | 445 kts | 324° |
| 2026-04-23 15:49 | 54.44375 | 13.37386 | 38167 ft | 449 kts | 324° |
| 2026-04-23 15:50 | 54.49298 | 13.30750 | 38162 ft | 449 kts | 324° |
| 2026-04-23 15:50 | 54.54203 | 13.24118 | 38167 ft | 449 kts | 324° |
| 2026-04-23 15:51 | 54.59081 | 13.17502 | 38165 ft | 447 kts | 324° |
| 2026-04-23 15:51 | 54.63957 | 13.10869 | 38166 ft | 446 kts | 324° |
| 2026-04-23 15:52 | 54.68824 | 13.04230 | 38140 ft | 446 kts | 323° |
| 2026-04-23 15:52 | 54.73710 | 12.97544 | 38162 ft | 449 kts | 323° |
| 2026-04-23 15:53 | 54.78612 | 12.90811 | 38156 ft | 450 kts | 323° |
| 2026-04-23 15:53 | 54.83505 | 12.84070 | 38159 ft | 450 kts | 323° |
| 2026-04-23 15:54 | 54.88389 | 12.77320 | 38156 ft | 448 kts | 323° |
| 2026-04-23 15:54 | 54.93106 | 12.70167 | 38160 ft | 448 kts | 319° |
| 2026-04-23 15:55 | 54.97619 | 12.62796 | 38138 ft | 448 kts | 318° |
| 2026-04-23 15:55 | 55.02211 | 12.55348 | 38160 ft | 450 kts | 319° |
| 2026-04-23 15:56 | 55.06804 | 12.47989 | 38159 ft | 451 kts | 319° |
| 2026-04-23 15:56 | 55.11428 | 12.40598 | 38159 ft | 451 kts | 319° |
| 2026-04-23 15:57 | 55.16064 | 12.33166 | 38169 ft | 451 kts | 319° |
| 2026-04-23 15:57 | 55.20643 | 12.25795 | 38166 ft | 449 kts | 319° |
| 2026-04-23 15:58 | 55.25250 | 12.18353 | 38153 ft | 449 kts | 318° |
| 2026-04-23 15:58 | 55.29856 | 12.10888 | 38171 ft | 452 kts | 318° |
| 2026-04-23 15:59 | 55.34475 | 12.03375 | 38170 ft | 452 kts | 318° |
| 2026-04-23 15:59 | 55.39085 | 11.95852 | 38176 ft | 452 kts | 318° |
| 2026-04-23 16:00 | 55.43667 | 11.88351 | 38175 ft | 452 kts | 318° |
| 2026-04-23 16:00 | 55.48278 | 11.80776 | 38176 ft | 452 kts | 318° |
| 2026-04-23 16:01 | 55.52870 | 11.73209 | 38172 ft | 453 kts | 317° |
| 2026-04-23 16:01 | 55.57483 | 11.65581 | 38172 ft | 456 kts | 317° |
| 2026-04-23 16:02 | 55.62119 | 11.57888 | 38171 ft | 456 kts | 317° |
| 2026-04-23 16:02 | 55.66720 | 11.50227 | 38174 ft | 456 kts | 317° |
| 2026-04-23 16:03 | 55.71342 | 11.42507 | 38175 ft | 456 kts | 317° |
| 2026-04-23 16:03 | 55.75951 | 11.34781 | 38176 ft | 456 kts | 317° |
| 2026-04-23 16:04 | 55.80549 | 11.27046 | 38162 ft | 456 kts | 317° |
| 2026-04-23 16:04 | 55.85156 | 11.19271 | 38170 ft | 457 kts | 317° |
| 2026-04-23 16:05 | 55.88990 | 11.12779 | 38171 ft | 457 kts | 317° |
| 2026-04-23 16:05 | 55.94351 | 11.03670 | 38171 ft | 457 kts | 316° |
| 2026-04-23 16:06 | 55.98976 | 10.95784 | 38166 ft | 457 kts | 316° |
| 2026-04-23 16:06 | 56.03566 | 10.87928 | 38169 ft | 457 kts | 316° |
| 2026-04-23 16:07 | 56.08134 | 10.80084 | 38167 ft | 457 kts | 316° |
| 2026-04-23 16:07 | 56.12703 | 10.72213 | 38166 ft | 456 kts | 316° |
| 2026-04-23 16:08 | 56.17263 | 10.64327 | 38164 ft | 455 kts | 316° |
| 2026-04-23 16:08 | 56.21820 | 10.56419 | 38164 ft | 455 kts | 316° |
| 2026-04-23 16:09 | 56.26377 | 10.48486 | 38156 ft | 455 kts | 316° |
| 2026-04-23 16:09 | 56.30933 | 10.40524 | 38157 ft | 455 kts | 316° |
| 2026-04-23 16:10 | 56.35472 | 10.32566 | 38158 ft | 457 kts | 315° |
| 2026-04-23 16:10 | 56.40027 | 10.24551 | 38168 ft | 458 kts | 315° |
| 2026-04-23 16:11 | 56.44571 | 10.16528 | 38177 ft | 457 kts | 315° |
| 2026-04-23 16:11 | 56.49107 | 10.08488 | 38176 ft | 456 kts | 315° |
| 2026-04-23 16:12 | 56.53635 | 10.00434 | 38175 ft | 456 kts | 315° |
| 2026-04-23 16:12 | 56.58225 | 9.92429 | 38181 ft | 457 kts | 316° |
| 2026-04-23 16:13 | 56.62876 | 9.84578 | 38179 ft | 458 kts | 316° |
| 2026-04-23 16:13 | 56.69855 | 9.72709 | 38181 ft | 459 kts | 316° |
| 2026-04-23 16:14 | 56.74514 | 9.64701 | 38189 ft | 459 kts | 315° |
| 2026-04-23 16:14 | 56.79121 | 9.56745 | 38190 ft | 457 kts | 315° |
| 2026-04-23 16:15 | 56.83751 | 9.48720 | 38185 ft | 457 kts | 315° |
| 2026-04-23 16:15 | 56.88351 | 9.40720 | 38178 ft | 456 kts | 315° |
| 2026-04-23 16:16 | 56.92200 | 9.34007 | 38189 ft | 459 kts | 314° |
| 2026-04-23 16:16 | 56.96809 | 9.25938 | 38183 ft | 459 kts | 314° |
| 2026-04-23 16:17 | 57.01406 | 9.17865 | 38190 ft | 460 kts | 314° |
| 2026-04-23 16:17 | 57.06013 | 9.09742 | 38190 ft | 459 kts | 314° |
| 2026-04-23 16:18 | 57.10601 | 9.01626 | 38184 ft | 457 kts | 314° |
| 2026-04-23 16:18 | 57.15188 | 8.93480 | 38183 ft | 457 kts | 314° |
| 2026-04-23 16:19 | 57.19749 | 8.85351 | 38175 ft | 459 kts | 314° |
| 2026-04-23 16:19 | 57.24355 | 8.77112 | 38175 ft | 461 kts | 314° |
| 2026-04-23 16:20 | 57.28949 | 8.68866 | 38175 ft | 461 kts | 314° |
| 2026-04-23 16:20 | 57.33520 | 8.60629 | 38167 ft | 461 kts | 313° |
| 2026-04-23 16:21 | 57.38106 | 8.52337 | 38170 ft | 460 kts | 313° |
| 2026-04-23 16:21 | 57.42683 | 8.44030 | 38160 ft | 459 kts | 313° |
| 2026-04-23 16:22 | 57.47248 | 8.35711 | 38161 ft | 460 kts | 312° |
| 2026-04-23 16:22 | 57.51805 | 8.27378 | 38158 ft | 460 kts | 312° |
| 2026-04-23 16:23 | 57.56357 | 8.19021 | 38161 ft | 461 kts | 312° |
| 2026-04-23 16:23 | 57.60906 | 8.10643 | 38161 ft | 461 kts | 313° |
| 2026-04-23 16:24 | 57.65465 | 8.02211 | 38161 ft | 462 kts | 313° |
| 2026-04-23 16:24 | 57.70013 | 7.93771 | 38166 ft | 462 kts | 312° |
| 2026-04-23 16:25 | 57.74576 | 7.85272 | 38157 ft | 462 kts | 312° |
| 2026-04-23 16:25 | 57.79134 | 7.76745 | 38171 ft | 464 kts | 311° |
| 2026-04-23 16:26 | 57.83695 | 7.68184 | 38162 ft | 464 kts | 311° |
| 2026-04-23 16:26 | 57.88235 | 7.59630 | 38162 ft | 464 kts | 311° |
| 2026-04-23 16:27 | 57.92776 | 7.51040 | 38170 ft | 464 kts | 311° |
| 2026-04-23 16:27 | 57.97320 | 7.42412 | 38170 ft | 464 kts | 311° |
| 2026-04-23 16:28 | 58.01847 | 7.33786 | 38187 ft | 463 kts | 311° |
| 2026-04-23 16:28 | 58.06392 | 7.25091 | 38183 ft | 464 kts | 311° |
| 2026-04-23 16:29 | 58.10889 | 7.16453 | 38184 ft | 464 kts | 311° |
| 2026-04-23 16:29 | 58.15409 | 7.07737 | 38203 ft | 464 kts | 311° |
| 2026-04-23 16:30 | 58.19928 | 6.98990 | 38199 ft | 464 kts | 311° |
| 2026-04-23 16:30 | 58.24447 | 6.90212 | 38221 ft | 464 kts | 310° |
| 2026-04-23 16:31 | 58.28923 | 6.81479 | 38223 ft | 464 kts | 310° |
| 2026-04-23 16:31 | 58.33446 | 6.72623 | 38220 ft | 466 kts | 310° |
| 2026-04-23 16:32 | 58.37961 | 6.63746 | 38245 ft | 466 kts | 310° |
| 2026-04-23 16:32 | 58.42434 | 6.54919 | 38241 ft | 466 kts | 310° |
| 2026-04-23 16:33 | 58.46936 | 6.46000 | 38278 ft | 466 kts | 310° |
| 2026-04-23 16:33 | 58.51435 | 6.37051 | 38279 ft | 466 kts | 310° |
| 2026-04-23 16:34 | 58.55920 | 6.28094 | 38287 ft | 466 kts | 310° |
| 2026-04-23 16:34 | 58.60411 | 6.19091 | 38318 ft | 468 kts | 309° |
| 2026-04-23 16:35 | 58.64921 | 6.10010 | 38324 ft | 469 kts | 309° |
| 2026-04-23 16:35 | 58.69383 | 6.00998 | 38339 ft | 468 kts | 309° |
| 2026-04-23 16:36 | 58.73887 | 5.91861 | 38351 ft | 468 kts | 309° |
| 2026-04-23 16:36 | 58.78346 | 5.82780 | 38366 ft | 469 kts | 309° |
| 2026-04-23 16:37 | 58.82829 | 5.73606 | 38373 ft | 469 kts | 309° |
| 2026-04-23 16:37 | 58.87292 | 5.64442 | 38373 ft | 469 kts | 309° |
| 2026-04-23 16:38 | 58.91577 | 5.54957 | 38369 ft | 467 kts | 305° |
| 2026-04-23 16:38 | 58.95583 | 5.45163 | 38362 ft | 466 kts | 304° |
| 2026-04-23 16:39 | 58.99603 | 5.35345 | 38363 ft | 466 kts | 305° |
| 2026-04-23 16:39 | 59.03668 | 5.25554 | 38368 ft | 466 kts | 305° |
| 2026-04-23 16:40 | 59.07748 | 5.15756 | 38379 ft | 466 kts | 305° |
| 2026-04-23 16:40 | 59.11832 | 5.05918 | 38386 ft | 466 kts | 305° |
| 2026-04-23 16:41 | 59.15886 | 4.96100 | 38387 ft | 467 kts | 305° |
| 2026-04-23 16:41 | 59.19952 | 4.86210 | 38392 ft | 467 kts | 304° |
| 2026-04-23 16:42 | 59.24004 | 4.76309 | 38396 ft | 467 kts | 305° |
| 2026-04-23 16:42 | 59.28062 | 4.66354 | 38384 ft | 467 kts | 304° |
| 2026-04-23 16:43 | 59.32090 | 4.56430 | 38395 ft | 467 kts | 304° |
| 2026-04-23 16:43 | 59.36143 | 4.46401 | 38399 ft | 468 kts | 304° |
| 2026-04-23 16:44 | 59.40177 | 4.36375 | 38409 ft | 470 kts | 304° |
| 2026-04-23 16:44 | 59.44222 | 4.26282 | 38403 ft | 470 kts | 304° |
| 2026-04-23 16:45 | 59.48237 | 4.16219 | 38406 ft | 470 kts | 304° |
| 2026-04-23 16:45 | 59.52284 | 4.06032 | 38417 ft | 470 kts | 304° |
| 2026-04-23 16:46 | 59.56285 | 3.95916 | 38415 ft | 470 kts | 304° |
| 2026-04-23 16:46 | 59.60309 | 3.85697 | 38430 ft | 470 kts | 304° |
| 2026-04-23 16:47 | 59.64322 | 3.75460 | 38433 ft | 472 kts | 304° |
| 2026-04-23 16:47 | 59.68312 | 3.65242 | 38436 ft | 472 kts | 304° |
| 2026-04-23 16:48 | 59.72322 | 3.54924 | 38431 ft | 472 kts | 304° |
| 2026-04-23 16:48 | 59.76315 | 3.44606 | 38433 ft | 472 kts | 304° |
| 2026-04-23 16:49 | 59.80308 | 3.34241 | 38446 ft | 472 kts | 304° |
| 2026-04-23 16:49 | 59.84275 | 3.23898 | 38439 ft | 472 kts | 304° |
| 2026-04-23 16:50 | 59.88253 | 3.13477 | 38447 ft | 473 kts | 304° |
| 2026-04-23 16:50 | 59.92224 | 3.03031 | 38446 ft | 473 kts | 304° |
| 2026-04-23 16:51 | 59.96195 | 2.92540 | 38444 ft | 473 kts | 304° |
| 2026-04-23 16:51 | 60.00150 | 2.82043 | 38452 ft | 473 kts | 303° |
| 2026-04-23 16:52 | 60.04122 | 2.71451 | 38452 ft | 473 kts | 303° |